createdAt,value
2023-01-28T00:02:13.728Z,102636.79
2023-01-28T00:04:42.224Z,102638.74
2023-01-28T00:07:10.957Z,102636.89
2023-01-28T00:09:39.778Z,102632.65
2023-01-28T00:12:08.232Z,102630.36
2023-01-28T00:14:36.590Z,102631.09
2023-01-28T00:17:06.186Z,102629.91
2023-01-28T00:19:34.529Z,102632.08
2023-01-28T00:22:04.585Z,102633.50
2023-01-28T00:24:33.404Z,102633.01
2023-01-28T00:27:01.771Z,102628.55
2023-01-28T00:29:30.269Z,102626.02
2023-01-28T00:31:58.843Z,102629.52
2023-01-28T00:34:30.877Z,102618.16
2023-01-28T00:36:59.426Z,102633.14
2023-01-28T00:39:27.834Z,102634.75
2023-01-28T00:41:56.290Z,102635.00
2023-01-28T00:44:26.275Z,102639.27
2023-01-28T00:46:54.599Z,102638.15
2023-01-28T00:49:23.713Z,102621.70
2023-01-28T00:51:52.136Z,102638.90
2023-01-28T00:54:21.050Z,102634.73
2023-01-28T00:56:49.545Z,102633.45
2023-01-28T00:59:18.377Z,102628.15
2023-01-28T01:01:47.065Z,102621.14
2023-01-28T01:04:27.074Z,102620.27
2023-01-28T01:06:55.655Z,102616.89
2023-01-28T01:09:24.310Z,102617.88
2023-01-28T01:11:52.778Z,102615.73
2023-01-28T01:14:21.162Z,102621.79
2023-01-28T01:16:49.518Z,102619.95
2023-01-28T01:19:20.964Z,102620.20
2023-01-28T01:21:50.980Z,102616.65
2023-01-28T01:24:19.562Z,102539.96
2023-01-28T01:26:48.011Z,102608.70
2023-01-28T01:29:16.377Z,102590.91
2023-01-28T01:31:45.369Z,102598.48
2023-01-28T01:34:13.813Z,102593.02
2023-01-28T01:36:44.229Z,102595.73
2023-01-28T01:39:13.225Z,102598.96
2023-01-28T01:41:42.526Z,102599.59
2023-01-28T01:44:48.094Z,102602.14
2023-01-28T01:47:18.340Z,102599.96
2023-01-28T01:49:47.155Z,102597.55
2023-01-28T01:52:21.289Z,102600.32
2023-01-28T01:54:53.761Z,102602.55
2023-01-28T01:57:27.641Z,102606.16
2023-01-28T02:00:06.046Z,102603.86
2023-01-28T02:02:47.261Z,102593.23
2023-01-28T02:05:20.631Z,102609.93
2023-01-28T02:07:52.308Z,102613.66
2023-01-28T02:10:22.041Z,102614.29
2023-01-28T02:12:56.396Z,102610.12
2023-01-28T02:15:27.894Z,102608.50
2023-01-28T02:17:57.978Z,102600.69
2023-01-28T02:20:38.541Z,102604.10
2023-01-28T02:23:41.184Z,102603.08
2023-01-28T02:26:47.060Z,102599.05
2023-01-28T02:29:35.041Z,102597.79
2023-01-28T02:32:34.129Z,102595.15
2023-01-28T02:35:25.906Z,102586.25
2023-01-28T02:38:00.914Z,102602.54
2023-01-28T02:40:34.553Z,102597.14
2023-01-28T02:43:03.040Z,102598.60
2023-01-28T02:45:52.245Z,102595.48
2023-01-28T02:48:23.544Z,102592.95
2023-01-28T02:51:41.796Z,102597.30
2023-01-28T02:54:19.248Z,102594.86
2023-01-28T02:57:22.590Z,102597.28
2023-01-28T03:00:09.325Z,102574.59
2023-01-28T03:03:13.323Z,102585.35
2023-01-28T03:06:07.037Z,102584.23
2023-01-28T03:09:04.948Z,102585.83
2023-01-28T03:11:58.372Z,102585.40
2023-01-28T03:14:47.325Z,102588.98
2023-01-28T03:17:42.378Z,102593.23
2023-01-28T03:20:30.566Z,102599.45
2023-01-28T03:23:27.735Z,102582.07
2023-01-28T03:26:19.085Z,102587.88
2023-01-28T03:29:09.098Z,102581.61
2023-01-28T03:31:57.107Z,102578.65
2023-01-28T03:34:44.948Z,102576.27
2023-01-28T03:37:15.827Z,102580.56
2023-01-28T03:39:50.017Z,102577.05
2023-01-28T03:42:19.550Z,102577.59
2023-01-28T03:45:09.016Z,102573.91
2023-01-28T03:47:40.727Z,102572.75
2023-01-28T03:50:10.202Z,102570.25
2023-01-28T03:52:49.236Z,102567.66
2023-01-28T03:55:26.037Z,102571.95
2023-01-28T03:57:54.948Z,102574.70
2023-01-28T04:00:25.808Z,102574.27
2023-01-28T04:02:56.516Z,102571.88
2023-01-28T04:05:26.202Z,102559.27
2023-01-28T04:07:55.807Z,102565.65
2023-01-28T04:10:38.610Z,102566.91
2023-01-28T04:13:13.971Z,102572.69
2023-01-28T04:15:43.593Z,102550.44
2023-01-28T04:18:12.441Z,102572.42
2023-01-28T04:20:41.032Z,102573.64
2023-01-28T04:23:10.106Z,102576.52
2023-01-28T04:25:38.408Z,102581.67
2023-01-28T04:28:09.521Z,102586.11
2023-01-28T04:30:37.922Z,102588.23
2023-01-28T04:33:13.433Z,102589.04
2023-01-28T04:35:56.914Z,102587.95
2023-01-28T04:38:44.165Z,102587.52
2023-01-28T04:41:24.098Z,102589.20
2023-01-28T04:43:52.762Z,102589.81
2023-01-28T04:46:42.610Z,102586.09
2023-01-28T04:49:15.853Z,102589.23
2023-01-28T04:51:53.800Z,102595.39
2023-01-28T04:54:48.901Z,102593.80
2023-01-28T04:57:18.873Z,102590.16
2023-01-28T04:59:47.429Z,102592.18
2023-01-28T05:02:17.155Z,102589.89
2023-01-28T05:04:46.737Z,102589.83
2023-01-28T05:07:28.161Z,102589.48
2023-01-28T05:09:56.513Z,102585.34
2023-01-28T05:12:24.750Z,102581.52
2023-01-28T05:14:53.494Z,102584.00
2023-01-28T05:17:23.104Z,102582.77
2023-01-28T05:19:51.664Z,102588.46
2023-01-28T05:22:24.789Z,102584.28
2023-01-28T05:25:22.520Z,102586.59
2023-01-28T05:27:52.305Z,102592.65
2023-01-28T05:30:21.731Z,102597.41
2023-01-28T05:32:50.423Z,102599.42
2023-01-28T05:35:23.501Z,102601.27
2023-01-28T05:37:52.159Z,102606.44
2023-01-28T05:40:20.809Z,102604.58
2023-01-28T05:42:49.347Z,102612.40
2023-01-28T05:45:43.886Z,102614.28
2023-01-28T05:48:22.562Z,102611.30
2023-01-28T05:51:09.473Z,102613.02
2023-01-28T05:53:40.095Z,102612.77
2023-01-28T05:56:08.975Z,102613.77
2023-01-28T05:58:38.960Z,102613.50
2023-01-28T06:01:14.530Z,102609.17
2023-01-28T06:03:47.054Z,102609.69
2023-01-28T06:06:15.490Z,102614.43
2023-01-28T06:08:43.833Z,102610.11
2023-01-28T06:11:12.621Z,102609.85
2023-01-28T06:13:41.955Z,102615.64
2023-01-28T06:16:36.716Z,102614.95
2023-01-28T06:19:23.962Z,102605.73
2023-01-28T06:21:52.269Z,102605.43
2023-01-28T06:24:21.548Z,102610.95
2023-01-28T06:26:50.122Z,102609.09
2023-01-28T06:29:19.646Z,102608.38
2023-01-28T06:31:48.025Z,102613.71
2023-01-28T06:34:16.595Z,102614.61
2023-01-28T06:36:45.230Z,102614.73
2023-01-28T06:39:13.593Z,102620.98
2023-01-28T06:41:42.281Z,102617.48
2023-01-28T06:44:10.643Z,102618.04
2023-01-28T06:46:39.208Z,102621.48
2023-01-28T06:49:08.278Z,102617.92
2023-01-28T06:51:36.600Z,102617.13
2023-01-28T06:54:05.194Z,102622.76
2023-01-28T06:56:33.553Z,102627.14
2023-01-28T06:59:02.353Z,102620.23
2023-01-28T07:01:30.756Z,102616.34
2023-01-28T07:03:59.190Z,102604.44
2023-01-28T07:06:27.612Z,102583.09
2023-01-28T07:08:55.925Z,102617.48
2023-01-28T07:11:24.306Z,102616.89
2023-01-28T07:13:52.729Z,102619.69
2023-01-28T07:16:21.025Z,102602.52
2023-01-28T07:18:49.927Z,102618.05
2023-01-28T07:21:18.187Z,102618.19
2023-01-28T07:23:46.685Z,102614.36
2023-01-28T07:26:15.760Z,102619.58
2023-01-28T07:28:44.293Z,102623.11
2023-01-28T07:31:12.826Z,102604.27
2023-01-28T07:33:41.302Z,102626.24
2023-01-28T07:36:09.691Z,102629.00
2023-01-28T07:38:38.528Z,102618.11
2023-01-28T07:41:07.187Z,102635.09
2023-01-28T07:43:35.530Z,102637.58
2023-01-28T07:46:04.063Z,102640.48
2023-01-28T07:48:32.633Z,102616.39
2023-01-28T07:51:01.763Z,102641.48
2023-01-28T07:53:30.158Z,102596.02
2023-01-28T07:56:02.199Z,102643.89
2023-01-28T07:58:32.791Z,102597.80
2023-01-28T08:01:01.869Z,102644.07
2023-01-28T08:03:30.354Z,102639.55
2023-01-28T08:05:59.151Z,102644.20
2023-01-28T08:08:28.388Z,102642.89
2023-01-28T08:10:56.879Z,102639.50
2023-01-28T08:13:25.576Z,102604.37
2023-01-28T08:15:56.931Z,102634.66
2023-01-28T08:18:25.625Z,102634.70
2023-01-28T08:20:57.915Z,102637.21
2023-01-28T08:23:27.528Z,102636.80
2023-01-28T08:25:58.988Z,102629.02
2023-01-28T08:28:28.009Z,102631.37
2023-01-28T08:30:56.365Z,102633.27
2023-01-28T08:33:25.197Z,102628.08
2023-01-28T08:35:53.533Z,102625.81
2023-01-28T08:38:21.893Z,102629.48
2023-01-28T08:40:55.959Z,102633.30
2023-01-28T08:43:24.737Z,102627.48
2023-01-28T08:45:53.167Z,102626.52
2023-01-28T08:48:22.046Z,102609.88
2023-01-28T08:50:51.022Z,102624.23
2023-01-28T08:53:20.822Z,102624.10
2023-01-28T08:55:49.241Z,102622.37
2023-01-28T08:58:18.921Z,102626.63
2023-01-28T09:00:48.044Z,102628.92
2023-01-28T09:03:17.497Z,102629.05
2023-01-28T09:05:45.947Z,102626.04
2023-01-28T09:08:15.599Z,102628.81
2023-01-28T09:10:44.299Z,102637.09
2023-01-28T09:13:16.073Z,102636.95
2023-01-28T09:15:44.526Z,102637.03
2023-01-28T09:18:13.027Z,102636.98
2023-01-28T09:20:41.465Z,102634.49
2023-01-28T09:23:09.992Z,102625.80
2023-01-28T09:25:38.529Z,102635.84
2023-01-28T09:28:07.389Z,102636.52
2023-01-28T09:30:37.783Z,102615.25
2023-01-28T09:33:07.593Z,102634.08
2023-01-28T09:35:37.023Z,102641.38
2023-01-28T09:38:05.894Z,102640.27
2023-01-28T09:40:42.480Z,102641.66
2023-01-28T09:43:36.055Z,102639.01
2023-01-28T09:46:07.295Z,102637.56
2023-01-28T09:48:49.377Z,102636.00
2023-01-28T09:51:30.045Z,102634.16
2023-01-28T09:54:04.780Z,102636.95
2023-01-28T09:56:51.707Z,102635.61
2023-01-28T09:59:23.025Z,102647.08
2023-01-28T10:02:04.540Z,102640.66
2023-01-28T10:04:36.021Z,102639.17
2023-01-28T10:07:39.464Z,102635.10
2023-01-28T10:10:20.329Z,102638.88
2023-01-28T10:13:18.964Z,102619.02
2023-01-28T10:16:15.057Z,102630.52
2023-01-28T10:18:50.417Z,102632.21
2023-01-28T10:21:30.142Z,102613.92
2023-01-28T10:24:24.377Z,102608.30
2023-01-28T10:26:54.195Z,102602.31
2023-01-28T10:29:27.178Z,102618.10
2023-01-28T10:31:59.881Z,102619.40
2023-01-28T10:34:28.353Z,102619.27
2023-01-28T10:36:58.198Z,102618.53
2023-01-28T10:39:28.614Z,102613.59
2023-01-28T10:41:58.498Z,102601.50
2023-01-28T10:44:38.405Z,102601.90
2023-01-28T10:47:15.132Z,102603.39
2023-01-28T10:49:53.280Z,102599.88
2023-01-28T10:52:22.109Z,102592.62
2023-01-28T10:55:04.115Z,102588.59
2023-01-28T10:57:35.393Z,102588.36
2023-01-28T11:00:20.005Z,102587.34
2023-01-28T11:02:49.771Z,102577.77
2023-01-28T11:05:21.717Z,102594.19
2023-01-28T11:07:50.681Z,102592.50
2023-01-28T11:10:40.618Z,102590.48
2023-01-28T11:13:20.049Z,102594.34
2023-01-28T11:16:02.183Z,102598.02
2023-01-28T11:18:47.228Z,102601.13
2023-01-28T11:21:29.681Z,102593.98
2023-01-28T11:24:15.967Z,102592.64
2023-01-28T11:26:48.293Z,102589.52
2023-01-28T11:29:26.764Z,102584.39
2023-01-28T11:31:56.549Z,102577.36
2023-01-28T11:34:35.067Z,102545.09
2023-01-28T11:37:16.587Z,102578.91
2023-01-28T11:39:45.124Z,102580.05
2023-01-28T11:42:18.460Z,102584.80
2023-01-28T11:44:47.746Z,102586.88
2023-01-28T11:47:43.643Z,102577.58
2023-01-28T11:50:16.857Z,102574.13
2023-01-28T11:53:04.831Z,102571.14
2023-01-28T11:55:53.783Z,102563.20
2023-01-28T11:58:37.083Z,102562.84
2023-01-28T12:01:11.692Z,102561.04
2023-01-28T12:03:51.523Z,102561.55
2023-01-28T12:06:36.855Z,102561.98
2023-01-28T12:09:45.575Z,102565.00
2023-01-28T12:12:20.126Z,102570.08
2023-01-28T12:15:27.171Z,102564.42
2023-01-28T12:18:14.201Z,102564.00
2023-01-28T12:20:45.049Z,102565.04
2023-01-28T12:23:52.217Z,102557.13
2023-01-28T12:26:46.744Z,102555.58
2023-01-28T12:29:36.396Z,102538.02
2023-01-28T12:32:29.116Z,102545.98
2023-01-28T12:35:19.201Z,102536.89
2023-01-28T12:38:16.320Z,102529.23
2023-01-28T12:40:59.951Z,102526.22
2023-01-28T12:43:40.053Z,102528.45
2023-01-28T12:46:17.303Z,102526.21
2023-01-28T12:49:04.313Z,102527.21
2023-01-28T12:51:55.215Z,102525.27
2023-01-28T12:54:34.428Z,102524.05
2023-01-28T12:57:03.909Z,102519.79
2023-01-28T12:59:53.809Z,102517.11
2023-01-28T13:02:40.904Z,102513.83
2023-01-28T13:05:23.129Z,102502.83
2023-01-28T13:08:12.055Z,102495.24
2023-01-28T13:10:44.582Z,102496.44
2023-01-28T13:13:37.596Z,102485.95
2023-01-28T13:16:09.804Z,102481.92
2023-01-28T13:18:41.220Z,102434.59
2023-01-28T13:21:14.581Z,102481.45
2023-01-28T13:23:46.593Z,102477.00
2023-01-28T13:26:18.347Z,102476.19
2023-01-28T13:28:49.889Z,102476.38
2023-01-28T13:31:24.636Z,102475.84
2023-01-28T13:33:56.098Z,102467.06
2023-01-28T13:36:45.926Z,102465.59
2023-01-28T13:39:17.245Z,102467.77
2023-01-28T13:41:48.141Z,102468.01
2023-01-28T13:44:30.164Z,102470.88
2023-01-28T13:47:24.776Z,102474.01
2023-01-28T13:50:13.932Z,102478.08
2023-01-28T13:52:51.297Z,102475.29
2023-01-28T13:55:41.554Z,102471.67
2023-01-28T13:58:21.230Z,102473.56
2023-01-28T14:01:05.310Z,102466.45
2023-01-28T14:03:39.384Z,102469.34
2023-01-28T14:06:25.967Z,102464.61
2023-01-28T14:09:15.985Z,102465.23
2023-01-28T14:11:56.364Z,102463.13
2023-01-28T14:14:24.563Z,102465.34
2023-01-28T14:17:01.261Z,102467.73
2023-01-28T14:19:34.011Z,102471.97
2023-01-28T14:22:09.747Z,102470.08
2023-01-28T14:24:39.891Z,102467.00
2023-01-28T14:27:23.615Z,102465.48
2023-01-28T14:30:28.852Z,102467.65
2023-01-28T14:32:58.160Z,102466.55
2023-01-28T14:35:34.397Z,102457.95
2023-01-28T14:38:09.559Z,102455.28
2023-01-28T14:40:40.358Z,102452.38
2023-01-28T14:43:16.108Z,102431.41
2023-01-28T14:45:53.216Z,102444.53
2023-01-28T14:48:38.639Z,102443.50
2023-01-28T14:51:25.665Z,102447.35
2023-01-28T14:54:03.524Z,102449.60
2023-01-28T14:56:46.201Z,102440.11
2023-01-28T14:59:20.931Z,102433.77
2023-01-28T15:01:49.854Z,102436.94
2023-01-28T15:04:33.304Z,102435.80
2023-01-28T15:07:17.994Z,102437.46
2023-01-28T15:09:46.823Z,102435.99
2023-01-28T15:12:17.436Z,102431.70
2023-01-28T15:14:48.077Z,102424.90
2023-01-28T15:17:26.083Z,102425.74
2023-01-28T15:19:58.160Z,102427.17
2023-01-28T15:22:28.800Z,102438.89
2023-01-28T15:24:57.662Z,102438.85
2023-01-28T15:27:30.130Z,102450.74
2023-01-28T15:30:00.793Z,102446.22
2023-01-28T15:32:31.393Z,102452.60
2023-01-28T15:35:01.382Z,102455.73
2023-01-28T15:37:29.709Z,102462.80
2023-01-28T15:40:06.621Z,102460.51
2023-01-28T15:42:35.345Z,102460.62
2023-01-28T15:45:04.692Z,102461.64
2023-01-28T15:47:35.953Z,102460.96
2023-01-28T15:50:15.800Z,102451.86
2023-01-28T15:52:46.216Z,102454.00
2023-01-28T15:55:36.760Z,102459.88
2023-01-28T15:58:31.143Z,102479.96
2023-01-28T16:01:09.270Z,102481.49
2023-01-28T16:03:40.635Z,102479.08
2023-01-28T16:06:22.660Z,102414.84
2023-01-28T16:09:00.236Z,102486.45
2023-01-28T16:11:32.621Z,102479.08
2023-01-28T16:14:01.750Z,102467.42
2023-01-28T16:16:38.352Z,102470.94
2023-01-28T16:19:07.747Z,102482.98
2023-01-28T16:21:43.679Z,102477.48
2023-01-28T16:24:33.300Z,102480.11
2023-01-28T16:27:29.442Z,102479.23
2023-01-28T16:29:58.058Z,102476.83
2023-01-28T16:32:37.378Z,102475.85
2023-01-28T16:35:23.840Z,102474.89
2023-01-28T16:37:52.188Z,102464.22
2023-01-28T16:40:23.339Z,102465.75
2023-01-28T16:42:56.375Z,102461.90
2023-01-28T16:45:25.839Z,102459.02
2023-01-28T16:47:54.197Z,102458.50
2023-01-28T16:50:23.240Z,102455.88
2023-01-28T16:52:54.996Z,102456.80
2023-01-28T16:55:23.887Z,102454.35
2023-01-28T16:57:56.066Z,102448.05
2023-01-28T17:00:27.266Z,102452.10
2023-01-28T17:02:55.672Z,102455.77
2023-01-28T17:05:24.199Z,102454.98
2023-01-28T17:07:55.157Z,102457.22
2023-01-28T17:10:23.462Z,102453.17
2023-01-28T17:12:52.042Z,102455.97
2023-01-28T17:15:20.459Z,102450.58
2023-01-28T17:17:49.910Z,102447.61
2023-01-28T17:20:18.317Z,102438.48
2023-01-28T17:22:46.675Z,102430.92
2023-01-28T17:25:15.769Z,102423.55
2023-01-28T17:27:45.134Z,102426.41
2023-01-28T17:30:14.184Z,102425.96
2023-01-28T17:32:42.547Z,102417.33
2023-01-28T17:35:12.484Z,102421.73
2023-01-28T17:37:40.948Z,102427.83
2023-01-28T17:40:12.573Z,102430.04
2023-01-28T17:42:41.061Z,102425.42
2023-01-28T17:45:09.631Z,102425.68
2023-01-28T17:47:38.514Z,102408.58
2023-01-28T17:50:07.123Z,102426.02
2023-01-28T17:52:35.475Z,102424.30
2023-01-28T17:55:04.674Z,102426.81
2023-01-28T17:57:33.425Z,102434.61
2023-01-28T18:00:02.574Z,102445.08
2023-01-28T18:02:40.605Z,102450.98
2023-01-28T18:05:09.459Z,102455.41
2023-01-28T18:07:37.900Z,102437.13
2023-01-28T18:10:07.173Z,102425.16
2023-01-28T18:12:35.831Z,102427.10
2023-01-28T18:15:04.415Z,102421.76
2023-01-28T18:17:32.925Z,102414.14
2023-01-28T18:20:01.238Z,102409.67
2023-01-28T18:22:29.807Z,102413.48
2023-01-28T18:24:58.191Z,102413.02
2023-01-28T18:27:27.482Z,102415.00
2023-01-28T18:29:55.911Z,102417.78
2023-01-28T18:32:25.691Z,102414.84
2023-01-28T18:34:54.112Z,102410.92
2023-01-28T18:37:22.464Z,102425.02
2023-01-28T18:39:50.831Z,102418.55
2023-01-28T18:42:19.173Z,102400.13
2023-01-28T18:44:47.706Z,102394.21
2023-01-28T18:47:17.834Z,102397.35
2023-01-28T18:49:46.131Z,102414.09
2023-01-28T18:52:14.516Z,102405.05
2023-01-28T18:54:42.922Z,102389.60
2023-01-28T18:57:15.726Z,102390.46
2023-01-28T18:59:44.143Z,102401.71
2023-01-28T19:02:14.535Z,102389.81
2023-01-28T19:04:43.063Z,102390.45
2023-01-28T19:07:12.156Z,102381.98
2023-01-28T19:09:40.555Z,102381.55
2023-01-28T19:12:08.938Z,102372.67
2023-01-28T19:14:37.691Z,102373.02
2023-01-28T19:17:06.478Z,102385.05
2023-01-28T19:19:35.150Z,102383.33
2023-01-28T19:22:03.722Z,102381.52
2023-01-28T19:24:32.897Z,102395.16
2023-01-28T19:27:02.208Z,102402.34
2023-01-28T19:29:30.717Z,102403.93
2023-01-28T19:31:59.031Z,102405.97
2023-01-28T19:34:27.504Z,102395.35
2023-01-28T19:36:55.849Z,102398.50
2023-01-28T19:39:24.303Z,102389.65
2023-01-28T19:41:52.691Z,102388.73
2023-01-28T19:44:21.051Z,102400.97
2023-01-28T19:46:49.365Z,102401.42
2023-01-28T19:49:17.820Z,102391.90
2023-01-28T19:51:46.352Z,102388.02
2023-01-28T19:54:14.682Z,102387.95
2023-01-28T19:56:42.996Z,102383.30
2023-01-28T19:59:11.457Z,102356.65
2023-01-28T20:01:40.704Z,102366.45
2023-01-28T20:04:09.156Z,102360.59
2023-01-28T20:06:37.905Z,102359.70
2023-01-28T20:09:15.708Z,102365.45
2023-01-28T20:11:44.037Z,102376.27
2023-01-28T20:14:12.934Z,102385.71
2023-01-28T20:16:41.810Z,102388.69
2023-01-28T20:19:18.008Z,102389.11
2023-01-28T20:21:47.521Z,102372.64
2023-01-28T20:24:16.024Z,102387.52
2023-01-28T20:26:45.272Z,102387.23
2023-01-28T20:29:20.871Z,102385.05
2023-01-28T20:32:09.035Z,102367.39
2023-01-28T20:34:38.935Z,102388.23
2023-01-28T20:37:10.308Z,102390.97
2023-01-28T20:39:38.720Z,102376.41
2023-01-28T20:42:09.856Z,102397.27
2023-01-28T20:44:38.256Z,102389.94
2023-01-28T20:47:07.915Z,102383.86
2023-01-28T20:49:36.298Z,102382.30
2023-01-28T20:52:04.728Z,102370.50
2023-01-28T20:54:33.001Z,102361.79
2023-01-28T20:57:01.357Z,102346.61
2023-01-28T20:59:31.470Z,102361.98
2023-01-28T21:02:01.028Z,102355.92
2023-01-28T21:04:29.751Z,102349.34
2023-01-28T21:06:58.126Z,102338.52
2023-01-28T21:09:28.125Z,102336.20
2023-01-28T21:11:56.446Z,102335.89
2023-01-28T21:14:24.782Z,102334.58
2023-01-28T21:16:53.302Z,102344.84
2023-01-28T21:19:21.895Z,102334.20
2023-01-28T21:21:50.319Z,102353.89
2023-01-28T21:24:19.082Z,102358.11
2023-01-28T21:26:47.513Z,102353.84
2023-01-28T21:29:16.084Z,102355.89
2023-01-28T21:31:44.733Z,102354.30
2023-01-28T21:34:14.624Z,102355.25
2023-01-28T21:36:45.426Z,102357.58
2023-01-28T21:39:13.641Z,102348.59
2023-01-28T21:41:41.852Z,102340.51
2023-01-28T21:44:12.166Z,102338.71
2023-01-28T21:46:40.741Z,102344.35
2023-01-28T21:49:11.104Z,102343.59
2023-01-28T21:51:39.772Z,102342.88
2023-01-28T21:54:13.584Z,102344.69
2023-01-28T21:56:45.771Z,102325.79
2023-01-28T21:59:33.358Z,102343.13
2023-01-28T22:02:13.727Z,102343.52
2023-01-28T22:04:44.899Z,102343.05
2023-01-28T22:07:19.072Z,102347.61
2023-01-28T22:09:48.018Z,102351.64
2023-01-28T22:12:16.477Z,102350.20
2023-01-28T22:14:45.902Z,102344.75
2023-01-28T22:17:15.252Z,102326.52
2023-01-28T22:19:48.342Z,102328.63
2023-01-28T22:22:17.881Z,102323.85
2023-01-28T22:24:46.249Z,102319.55
2023-01-28T22:27:15.245Z,102317.66
2023-01-28T22:29:43.577Z,102315.06
2023-01-28T22:32:11.865Z,102300.55
2023-01-28T22:34:40.143Z,102295.91
2023-01-28T22:37:10.905Z,102285.11
2023-01-28T22:39:40.066Z,102276.81
2023-01-28T22:42:08.438Z,102271.58
2023-01-28T22:44:36.797Z,102274.93
2023-01-28T22:47:05.602Z,102274.05
2023-01-28T22:49:34.587Z,102266.11
2023-01-28T22:52:02.908Z,102258.86
2023-01-28T22:54:31.589Z,102255.91
2023-01-28T22:57:00.332Z,102243.49
2023-01-28T22:59:29.094Z,102232.59
2023-01-28T23:01:58.763Z,102228.91
2023-01-28T23:04:28.425Z,102230.73
2023-01-28T23:06:57.141Z,102231.34
2023-01-28T23:09:26.062Z,102231.73
2023-01-28T23:11:54.587Z,102228.97
2023-01-28T23:14:42.955Z,102216.12
2023-01-28T23:17:30.213Z,102236.57
2023-01-28T23:20:17.641Z,102237.55
2023-01-28T23:23:06.234Z,102229.66
2023-01-28T23:25:34.615Z,102226.83
2023-01-28T23:28:02.939Z,102228.41
2023-01-28T23:30:31.712Z,102226.89
2023-01-28T23:33:02.063Z,102221.98
2023-01-28T23:35:32.882Z,102212.36
2023-01-28T23:38:01.188Z,102201.94
2023-01-28T23:40:29.684Z,102200.36
2023-01-28T23:42:58.695Z,102200.66
2023-01-28T23:45:27.357Z,102197.98
2023-01-28T23:47:55.749Z,102194.25
2023-01-28T23:50:24.220Z,102184.17
2023-01-28T23:52:52.627Z,102181.89
2023-01-28T23:55:21.021Z,102174.50
2023-01-28T23:57:49.344Z,102173.36
